createdAt,value
2019-02-17T00:00:48.203Z,101263.12
2019-02-17T00:03:17.047Z,101266.34
2019-02-17T00:05:45.899Z,101265.22
2019-02-17T00:08:14.865Z,101264.40
2019-02-17T00:10:43.767Z,101265.72
2019-02-17T00:13:12.618Z,101261.91
2019-02-17T00:15:41.498Z,101258.59
2019-02-17T00:18:10.431Z,101259.64
2019-02-17T00:20:39.313Z,101259.88
2019-02-17T00:23:08.097Z,101264.48
2019-02-17T00:25:36.949Z,101265.53
2019-02-17T00:28:05.849Z,101267.70
2019-02-17T00:30:34.667Z,101262.52
2019-02-17T00:33:03.539Z,101262.20
2019-02-17T00:35:32.660Z,101259.98
2019-02-17T00:38:01.474Z,101259.67
2019-02-17T00:40:30.280Z,101262.66
2019-02-17T00:42:59.238Z,101263.70
2019-02-17T00:45:28.123Z,101265.05
2019-02-17T00:47:57.016Z,101266.08
2019-02-17T00:50:25.733Z,101265.48
2019-02-17T00:52:54.447Z,101259.77
2019-02-17T00:55:23.339Z,101259.45
2019-02-17T00:57:52.249Z,101260.52
2019-02-17T01:00:21.158Z,101263.19
2019-02-17T01:02:49.966Z,101262.64
2019-02-17T01:05:18.751Z,101262.86
2019-02-17T01:07:47.611Z,101260.41
2019-02-17T01:10:16.433Z,101263.37
2019-02-17T01:12:45.234Z,101259.25
2019-02-17T01:15:14.161Z,101258.95
2019-02-17T01:17:43.036Z,101253.20
2019-02-17T01:20:11.971Z,101254.82
2019-02-17T01:22:40.855Z,101258.84
2019-02-17T01:25:09.706Z,101256.12
2019-02-17T01:27:38.603Z,101259.09
2019-02-17T01:30:07.871Z,101260.17
2019-02-17T01:32:36.671Z,101256.86
2019-02-17T01:35:05.880Z,101256.30
2019-02-17T01:37:34.761Z,101256.25
2019-02-17T01:40:03.915Z,101253.52
2019-02-17T01:42:32.750Z,101252.12
2019-02-17T01:45:01.641Z,101256.17
2019-02-17T01:47:30.495Z,101246.85
2019-02-17T01:49:59.306Z,101248.47
2019-02-17T01:52:28.196Z,101241.13
2019-02-17T01:54:57.059Z,101239.72
2019-02-17T01:57:25.993Z,101245.67
2019-02-17T01:59:54.816Z,101236.16
2019-02-17T02:02:23.628Z,101238.55
2019-02-17T02:04:52.527Z,101231.48
2019-02-17T02:07:21.247Z,101230.09
2019-02-17T02:09:50.050Z,101229.51
2019-02-17T02:12:18.891Z,101228.95
2019-02-17T02:14:47.623Z,101228.90
2019-02-17T02:17:16.494Z,101221.02
2019-02-17T02:19:45.498Z,101224.25
2019-02-17T02:22:14.370Z,101221.80
2019-02-17T02:24:43.222Z,101215.25
2019-02-17T02:27:12.024Z,101215.22
2019-02-17T02:29:41.508Z,101215.20
2019-02-17T02:32:10.568Z,101207.84
2019-02-17T02:34:39.293Z,101209.17
2019-02-17T02:37:08.107Z,101211.55
2019-02-17T02:39:36.975Z,101211.55
2019-02-17T02:42:05.904Z,101210.99
2019-02-17T02:44:34.746Z,101196.87
2019-02-17T02:47:03.573Z,101204.95
2019-02-17T02:49:32.384Z,101209.28
2019-02-17T02:52:01.281Z,101204.11
2019-02-17T02:54:30.160Z,101201.07
2019-02-17T02:56:58.976Z,101205.14
2019-02-17T02:59:27.842Z,101196.70
2019-02-17T03:01:56.643Z,101201.81
2019-02-17T03:04:25.419Z,101199.89
2019-02-17T03:06:59.704Z,101193.37
2019-02-17T03:09:28.494Z,101192.81
2019-02-17T03:11:57.241Z,101190.87
2019-02-17T03:14:26.022Z,101192.48
2019-02-17T03:16:54.751Z,101191.92
2019-02-17T03:19:23.586Z,101193.50
2019-02-17T03:21:52.398Z,101189.16
2019-02-17T03:24:21.220Z,101191.30
2019-02-17T03:26:50.065Z,101196.95
2019-02-17T03:29:18.857Z,101198.25
2019-02-17T03:31:47.790Z,101205.03
2019-02-17T03:34:16.495Z,101199.58
2019-02-17T03:36:45.255Z,101196.84
2019-02-17T03:39:14.171Z,101203.31
2019-02-17T03:41:42.972Z,101202.75
2019-02-17T03:44:11.734Z,101201.11
2019-02-17T03:46:40.643Z,101198.38
2019-02-17T03:49:09.454Z,101192.36
2019-02-17T03:51:38.309Z,101196.68
2019-02-17T03:54:07.077Z,101201.00
2019-02-17T03:56:35.897Z,101193.13
2019-02-17T03:59:04.615Z,101195.78
2019-02-17T04:01:33.413Z,101195.22
2019-02-17T04:04:02.352Z,101194.12
2019-02-17T04:06:31.087Z,101196.52
2019-02-17T04:08:59.975Z,101204.36
2019-02-17T04:11:28.845Z,101192.95
2019-02-17T04:13:57.659Z,101194.56
2019-02-17T04:16:26.605Z,101197.50
2019-02-17T04:18:55.429Z,101205.34
2019-02-17T04:21:24.323Z,101206.42
2019-02-17T04:23:53.077Z,101199.62
2019-02-17T04:26:21.981Z,101197.16
2019-02-17T04:28:50.875Z,101192.78
2019-02-17T04:31:19.716Z,101193.58
2019-02-17T04:33:48.480Z,101186.52
2019-02-17T04:36:17.356Z,101183.25
2019-02-17T04:38:46.164Z,101189.42
2019-02-17T04:41:14.894Z,101118.86
2019-02-17T04:43:43.659Z,101184.52
2019-02-17T04:46:12.400Z,101174.75
2019-02-17T04:48:41.367Z,101180.39
2019-02-17T04:51:10.326Z,101173.88
2019-02-17T04:53:39.196Z,101174.12
2019-02-17T04:56:08.093Z,101168.96
2019-02-17T04:58:36.871Z,101170.85
2019-02-17T05:01:05.724Z,101172.42
2019-02-17T05:03:34.456Z,101167.55
2019-02-17T05:06:03.288Z,101166.70
2019-02-17T05:08:32.184Z,101165.34
2019-02-17T05:11:00.888Z,101165.59
2019-02-17T05:13:29.789Z,101164.47
2019-02-17T05:15:58.599Z,101158.23
2019-02-17T05:18:27.514Z,101151.72
2019-02-17T05:20:56.309Z,101154.67
2019-02-17T05:23:25.118Z,101152.22
2019-02-17T05:25:53.884Z,101157.86
2019-02-17T05:28:22.677Z,101154.33
2019-02-17T05:30:53.234Z,101156.75
2019-02-17T05:33:22.040Z,101159.19
2019-02-17T05:35:50.884Z,101150.49
2019-02-17T05:38:19.591Z,101151.25
2019-02-17T05:40:48.407Z,101147.72
2019-02-17T05:43:17.291Z,101151.22
2019-02-17T05:45:46.079Z,101152.29
2019-02-17T05:48:14.908Z,101146.25
2019-02-17T05:50:43.785Z,101145.96
2019-02-17T05:53:12.535Z,101127.14
2019-02-17T05:55:41.329Z,101147.56
2019-02-17T05:58:10.083Z,101146.19
2019-02-17T06:00:39.588Z,101149.11
2019-02-17T06:03:08.344Z,101144.52
2019-02-17T06:05:37.170Z,101151.59
2019-02-17T06:08:05.884Z,101145.05
2019-02-17T06:10:34.636Z,101145.87
2019-02-17T06:13:03.439Z,101146.41
2019-02-17T06:15:32.223Z,101143.16
2019-02-17T06:18:01.094Z,101139.35
2019-02-17T06:20:29.909Z,101142.06
2019-02-17T06:22:58.788Z,101146.66
2019-02-17T06:25:27.577Z,101139.07
2019-02-17T06:27:56.484Z,101145.55
2019-02-17T06:30:25.286Z,101147.98
2019-02-17T06:32:54.182Z,101141.49
2019-02-17T06:35:22.982Z,101150.69
2019-02-17T06:37:51.727Z,101148.23
2019-02-17T06:40:20.665Z,101143.31
2019-02-17T06:42:49.489Z,101151.44
2019-02-17T06:45:19.718Z,101153.05
2019-02-17T06:47:48.812Z,101155.47
2019-02-17T06:50:17.707Z,101147.88
2019-02-17T06:52:46.513Z,101154.11
2019-02-17T06:55:23.594Z,101154.11
2019-02-17T06:57:52.447Z,101149.20
2019-02-17T07:00:31.335Z,101148.66
2019-02-17T07:03:00.204Z,101149.20
2019-02-17T07:05:37.207Z,101147.53
2019-02-17T07:08:05.940Z,101144.54
2019-02-17T07:10:34.669Z,101146.71
2019-02-17T07:13:03.531Z,101146.50
2019-02-17T07:15:32.369Z,101144.83
2019-02-17T07:18:01.122Z,101144.83
2019-02-17T07:20:30.001Z,101152.13
2019-02-17T07:22:58.959Z,101148.06
2019-02-17T07:25:30.383Z,101153.27
2019-02-17T07:27:58.277Z,101152.13
2019-02-17T07:30:27.160Z,101142.12
2019-02-17T07:32:56.049Z,101142.44
2019-02-17T07:35:24.814Z,101143.47
2019-02-17T07:37:53.550Z,101137.52
2019-02-17T07:40:22.416Z,101135.95
2019-02-17T07:42:51.313Z,101138.66
2019-02-17T07:45:20.102Z,101143.56
2019-02-17T07:47:48.944Z,101140.39
2019-02-17T07:50:17.810Z,101134.16
2019-02-17T07:52:46.750Z,101136.08
2019-02-17T07:55:15.624Z,101137.56
2019-02-17T07:57:44.374Z,101137.18
2019-02-17T08:00:13.274Z,101136.73
2019-02-17T08:02:42.107Z,101131.69
2019-02-17T08:05:10.849Z,101131.80
2019-02-17T08:07:39.670Z,101122.75
2019-02-17T08:10:08.630Z,101124.78
2019-02-17T08:12:37.505Z,101125.70
2019-02-17T08:15:07.379Z,101123.41
2019-02-17T08:17:36.286Z,101123.52
2019-02-17T08:20:05.850Z,101122.00
2019-02-17T08:22:34.671Z,101122.13
2019-02-17T08:25:03.623Z,101124.38
2019-02-17T08:27:32.458Z,101121.17
2019-02-17T08:30:01.342Z,101114.67
2019-02-17T08:32:30.191Z,101116.08
2019-02-17T08:34:59.002Z,101118.53
2019-02-17T08:37:27.821Z,101108.87
2019-02-17T08:39:56.731Z,101110.84
2019-02-17T08:42:25.718Z,101109.56
2019-02-17T08:44:54.671Z,101105.81
2019-02-17T08:47:23.440Z,101108.01
2019-02-17T08:49:52.409Z,101106.66
2019-02-17T08:52:21.330Z,101102.86
2019-02-17T08:54:50.176Z,101103.40
2019-02-17T08:57:19.005Z,101106.39
2019-02-17T08:59:47.927Z,101103.14
2019-02-17T09:02:16.807Z,101105.00
2019-02-17T09:04:45.760Z,101097.81
2019-02-17T09:07:14.501Z,101103.90
2019-02-17T09:09:43.424Z,101099.16
2019-02-17T09:12:18.597Z,101101.31
2019-02-17T09:14:47.529Z,101098.37
2019-02-17T09:17:16.370Z,101096.57
2019-02-17T09:19:45.242Z,101092.89
2019-02-17T09:22:14.044Z,101087.54
2019-02-17T09:24:42.930Z,101084.83
2019-02-17T09:27:11.869Z,101087.77
2019-02-17T09:29:40.788Z,101083.49
2019-02-17T09:32:16.352Z,101078.84
2019-02-17T09:34:40.323Z,101081.58
2019-02-17T09:37:09.283Z,101077.58
2019-02-17T09:39:38.124Z,101081.23
2019-02-17T09:42:07.059Z,101080.79
2019-02-17T09:44:36.013Z,101078.12
2019-02-17T09:47:04.925Z,101078.78
2019-02-17T09:49:33.820Z,101044.96
2019-02-17T09:52:02.656Z,101073.32
2019-02-17T09:54:31.418Z,101067.74
2019-02-17T09:57:00.296Z,101062.50
2019-02-17T09:59:29.208Z,101054.27
2019-02-17T10:01:58.083Z,101062.19
2019-02-17T10:04:27.044Z,101060.09
2019-02-17T10:06:56.034Z,101053.78
2019-02-17T10:09:25.056Z,101051.02
2019-02-17T10:11:54.363Z,101055.62
2019-02-17T10:14:23.883Z,101061.34
2019-02-17T10:16:52.736Z,101058.69
2019-02-17T10:19:21.696Z,101055.22
2019-02-17T10:21:50.644Z,101051.72
2019-02-17T10:24:19.535Z,101050.16
2019-02-17T10:26:48.454Z,101042.41
2019-02-17T10:29:17.250Z,101048.19
2019-02-17T10:31:46.319Z,101050.72
2019-02-17T10:34:15.338Z,101040.23
2019-02-17T10:36:44.285Z,101033.92
2019-02-17T10:39:13.231Z,101035.72
2019-02-17T10:41:42.255Z,101031.38
2019-02-17T10:44:11.088Z,101030.88
2019-02-17T10:46:40.005Z,101025.30
2019-02-17T10:49:08.913Z,101023.10
2019-02-17T10:51:37.819Z,101023.16
2019-02-17T10:54:06.809Z,101022.00
2019-02-17T10:56:35.748Z,101016.09
2019-02-17T10:59:04.940Z,101011.17
2019-02-17T11:01:33.858Z,101007.63
2019-02-17T11:04:05.202Z,101014.61
2019-02-17T11:06:34.223Z,101018.92
2019-02-17T11:09:04.950Z,101007.57
2019-02-17T11:11:34.189Z,101008.02
2019-02-17T11:14:03.357Z,101003.20
2019-02-17T11:16:32.448Z,101006.17
2019-02-17T11:19:01.505Z,100995.02
2019-02-17T11:21:30.477Z,100999.54
2019-02-17T11:23:59.733Z,100989.78
2019-02-17T11:26:28.576Z,100989.27
2019-02-17T11:28:57.954Z,100976.72
2019-02-17T11:31:29.294Z,100971.09
2019-02-17T11:33:58.327Z,100969.19
2019-02-17T11:36:27.341Z,100970.81
2019-02-17T11:38:56.719Z,100969.72
2019-02-17T11:41:25.619Z,100967.83
2019-02-17T11:43:54.900Z,100965.96
2019-02-17T11:46:23.972Z,100964.61
2019-02-17T11:48:53.166Z,100961.20
2019-02-17T11:51:21.973Z,100956.86
2019-02-17T11:53:50.895Z,100951.17
2019-02-17T11:56:20.291Z,100954.21
2019-02-17T11:58:49.287Z,100953.39
2019-02-17T12:01:18.151Z,100952.27
2019-02-17T12:03:47.259Z,100951.73
2019-02-17T12:06:16.269Z,100948.36
2019-02-17T12:08:48.027Z,100942.23
2019-02-17T12:11:17.531Z,100937.12
2019-02-17T12:13:46.442Z,100934.11
2019-02-17T12:16:15.343Z,100877.16
2019-02-17T12:18:44.310Z,100921.45
2019-02-17T12:21:34.962Z,100923.08
2019-02-17T12:24:18.466Z,100925.58
2019-02-17T12:27:18.449Z,100919.81
2019-02-17T12:29:54.284Z,100916.92
2019-02-17T12:32:28.552Z,100914.30
2019-02-17T12:34:57.568Z,100912.48
2019-02-17T12:37:26.578Z,100906.02
2019-02-17T12:39:55.543Z,100901.11
2019-02-17T12:42:24.647Z,100901.06
2019-02-17T12:44:53.686Z,100894.50
2019-02-17T12:47:23.353Z,100895.55
2019-02-17T12:49:52.587Z,100893.68
2019-02-17T12:52:21.862Z,100888.34
2019-02-17T12:54:50.812Z,100887.53
2019-02-17T12:57:19.754Z,100890.16
2019-02-17T12:59:48.773Z,100886.20
2019-02-17T13:02:18.013Z,100886.20
2019-02-17T13:04:47.006Z,100879.69
2019-02-17T13:07:15.923Z,100874.30
2019-02-17T13:09:45.105Z,100878.62
2019-02-17T13:12:14.125Z,100873.73
2019-02-17T13:14:43.314Z,100869.47
2019-02-17T13:17:12.245Z,100866.99
2019-02-17T13:19:41.440Z,100860.81
2019-02-17T13:22:10.327Z,100860.81
2019-02-17T13:24:39.182Z,100860.02
2019-02-17T13:27:08.030Z,100859.73
2019-02-17T13:29:36.940Z,100854.58
2019-02-17T13:32:05.867Z,100849.67
2019-02-17T13:34:34.856Z,100850.52
2019-02-17T13:37:03.689Z,100848.91
2019-02-17T13:39:32.677Z,100847.81
2019-02-17T13:42:01.650Z,100843.75
2019-02-17T13:44:30.723Z,100844.80
2019-02-17T13:46:59.676Z,100838.83
2019-02-17T13:49:28.689Z,100837.45
2019-02-17T13:51:57.659Z,100832.78
2019-02-17T13:54:26.627Z,100828.98
2019-02-17T13:56:55.471Z,100824.92
2019-02-17T13:59:24.442Z,100828.16
2019-02-17T14:01:53.403Z,100837.63
2019-02-17T14:04:22.387Z,100823.00
2019-02-17T14:06:51.366Z,100819.71
2019-02-17T14:09:20.287Z,100816.73
2019-02-17T14:11:49.111Z,100816.98
2019-02-17T14:14:18.026Z,100815.89
2019-02-17T14:16:47.006Z,100814.80
2019-02-17T14:19:15.963Z,100808.24
2019-02-17T14:21:44.870Z,100806.87
2019-02-17T14:24:13.758Z,100800.06
2019-02-17T14:26:42.997Z,100806.55
2019-02-17T14:29:11.918Z,100802.48
2019-02-17T14:31:40.840Z,100797.61
2019-02-17T14:34:09.648Z,100800.11
2019-02-17T14:36:38.486Z,100798.25
2019-02-17T14:39:07.494Z,100798.32
2019-02-17T14:41:36.297Z,100792.16
2019-02-17T14:44:05.420Z,100786.84
2019-02-17T14:46:34.382Z,100787.95
2019-02-17T14:49:03.280Z,100782.32
2019-02-17T14:51:32.409Z,100779.61
2019-02-17T14:54:01.294Z,100780.08
2019-02-17T14:56:30.180Z,100775.13
2019-02-17T14:58:59.014Z,100769.70
2019-02-17T15:01:28.132Z,100775.38
2019-02-17T15:03:57.138Z,100773.47
2019-02-17T15:06:26.088Z,100774.55
2019-02-17T15:08:55.173Z,100772.07
2019-02-17T15:11:24.115Z,100765.56
2019-02-17T15:13:53.078Z,100768.80
2019-02-17T15:16:22.079Z,100770.09
2019-02-17T15:18:51.109Z,100769.00
2019-02-17T15:21:20.171Z,100767.59
2019-02-17T15:23:49.045Z,100765.35
2019-02-17T15:26:17.984Z,100766.41
2019-02-17T15:28:50.936Z,100771.21
2019-02-17T15:31:17.511Z,100766.88
2019-02-17T15:33:47.022Z,100763.08
2019-02-17T15:36:15.915Z,100765.47
2019-02-17T15:38:45.036Z,100759.78
2019-02-17T15:41:13.965Z,100764.64
2019-02-17T15:43:45.357Z,100758.95
2019-02-17T15:46:13.637Z,100756.73
2019-02-17T15:48:42.600Z,100761.60
2019-02-17T15:51:11.895Z,100761.58
2019-02-17T15:53:40.866Z,100757.78
2019-02-17T15:56:10.037Z,100762.37
2019-02-17T15:58:39.653Z,100757.55
2019-02-17T16:01:08.749Z,100756.66
2019-02-17T16:03:37.660Z,100759.86
2019-02-17T16:06:06.641Z,100760.92
2019-02-17T16:08:35.642Z,100753.72
2019-02-17T16:11:04.628Z,100758.80
2019-02-17T16:13:33.573Z,100754.05
2019-02-17T16:16:02.611Z,100751.38
2019-02-17T16:18:31.741Z,100741.90
2019-02-17T16:21:00.699Z,100746.55
2019-02-17T16:23:29.609Z,100744.92
2019-02-17T16:25:58.733Z,100747.91
2019-02-17T16:28:27.761Z,100746.83
2019-02-17T16:30:56.838Z,100748.17
2019-02-17T16:33:26.039Z,100749.31
2019-02-17T16:35:54.998Z,100753.66
2019-02-17T16:38:24.001Z,100750.89
2019-02-17T16:40:53.227Z,100746.56
2019-02-17T16:43:23.343Z,100755.23
2019-02-17T16:45:52.781Z,100749.80
2019-02-17T16:48:22.356Z,100754.20
2019-02-17T16:50:51.983Z,100752.31
2019-02-17T16:53:21.382Z,100751.20
2019-02-17T16:55:51.146Z,100753.62
2019-02-17T16:58:20.507Z,100750.05
2019-02-17T17:00:49.600Z,100750.88
2019-02-17T17:03:19.378Z,100757.12
2019-02-17T17:05:49.155Z,100751.14
2019-02-17T17:08:18.499Z,100752.78
2019-02-17T17:10:48.724Z,100748.97
2019-02-17T17:13:18.571Z,100753.03
2019-02-17T17:15:49.138Z,100753.30
2019-02-17T17:18:18.635Z,100754.64
2019-02-17T17:20:48.207Z,100751.91
2019-02-17T17:23:17.327Z,100759.53
2019-02-17T17:25:47.088Z,100754.63
2019-02-17T17:28:16.101Z,100764.99
2019-02-17T17:30:45.391Z,100757.89
2019-02-17T17:33:15.325Z,100759.56
2019-02-17T17:35:44.751Z,100761.19
2019-02-17T17:38:14.055Z,100759.81
2019-02-17T17:40:43.482Z,100756.56
2019-02-17T17:43:13.973Z,100755.25
2019-02-17T17:45:43.767Z,100747.91
2019-02-17T17:48:13.433Z,100746.55
2019-02-17T17:50:43.304Z,100755.00
2019-02-17T17:53:13.320Z,100752.28
2019-02-17T17:55:43.252Z,100750.66
2019-02-17T17:58:13.188Z,100756.38
2019-02-17T18:00:43.538Z,100756.92
2019-02-17T18:03:13.259Z,100753.64
2019-02-17T18:05:42.392Z,100759.91
2019-02-17T18:08:12.561Z,100758.28
2019-02-17T18:10:42.773Z,100755.55
2019-02-17T18:13:15.333Z,100761.83
2019-02-17T18:15:45.863Z,100761.25
2019-02-17T18:18:16.020Z,100746.81
2019-02-17T18:20:45.312Z,100755.80
2019-02-17T18:23:15.812Z,100753.60
2019-02-17T18:25:48.383Z,100756.34
2019-02-17T18:28:17.718Z,100760.67
2019-02-17T18:30:48.335Z,100765.28
2019-02-17T18:33:18.202Z,100764.47
2019-02-17T18:35:49.344Z,100763.38
2019-02-17T18:38:19.392Z,100767.99
2019-02-17T18:40:50.137Z,100762.56
2019-02-17T18:43:19.971Z,100757.41
2019-02-17T18:45:50.141Z,100753.58
2019-02-17T18:48:20.662Z,100760.89
2019-02-17T18:50:58.991Z,100759.80
2019-02-17T18:53:23.175Z,100764.16
2019-02-17T18:55:53.463Z,100764.16
2019-02-17T18:58:24.031Z,100768.50
2019-02-17T19:00:54.422Z,100769.83
2019-02-17T19:03:24.927Z,100766.03
2019-02-17T19:05:55.128Z,100768.75
2019-02-17T19:08:28.069Z,100770.13
2019-02-17T19:10:59.296Z,100776.12
2019-02-17T19:13:30.073Z,100772.30
2019-02-17T19:16:01.186Z,100768.26
2019-02-17T19:18:31.652Z,100769.05
2019-02-17T19:21:03.365Z,100772.06
2019-02-17T19:23:33.824Z,100759.83
2019-02-17T19:26:04.817Z,100759.02
2019-02-17T19:28:35.219Z,100759.28
2019-02-17T19:31:05.091Z,100758.22
2019-02-17T19:33:35.304Z,100759.03
2019-02-17T19:36:05.541Z,100760.92
2019-02-17T19:38:36.196Z,100764.75
2019-02-17T19:41:06.038Z,100765.28
2019-02-17T19:43:38.577Z,100774.28
2019-02-17T19:46:09.409Z,100768.02
2019-02-17T19:48:40.485Z,100779.44
2019-02-17T19:51:11.109Z,100776.71
2019-02-17T19:53:41.677Z,100790.30
2019-02-17T19:56:11.792Z,100781.66
2019-02-17T19:58:41.780Z,100775.68
2019-02-17T20:01:12.001Z,100782.19
2019-02-17T20:03:59.007Z,100779.20
2019-02-17T20:06:29.427Z,100772.96
2019-02-17T20:09:00.335Z,100780.02
2019-02-17T20:11:30.338Z,100781.12
2019-02-17T20:14:00.750Z,100783.55
2019-02-17T20:16:31.005Z,100786.83
2019-02-17T20:19:02.348Z,100793.89
2019-02-17T20:21:32.697Z,100791.98
2019-02-17T20:24:03.023Z,100786.83
2019-02-17T20:26:33.184Z,100789.00
2019-02-17T20:29:03.708Z,100795.53
2019-02-17T20:31:34.136Z,100789.53
2019-02-17T20:34:04.020Z,100794.42
2019-02-17T20:36:33.864Z,100804.50
2019-02-17T20:39:04.794Z,100801.51
2019-02-17T20:41:34.140Z,100802.86
2019-02-17T20:44:04.316Z,100799.87
2019-02-17T20:46:34.482Z,100800.14
2019-02-17T20:49:04.607Z,100802.31
2019-02-17T20:51:35.943Z,100808.03
2019-02-17T20:54:05.602Z,100808.83
2019-02-17T20:56:36.186Z,100808.83
2019-02-17T20:59:06.478Z,100809.09
2019-02-17T21:01:36.463Z,100808.52
2019-02-17T21:04:05.969Z,100807.75
2019-02-17T21:06:36.306Z,100806.63
2019-02-17T21:09:06.983Z,100806.35
2019-02-17T21:11:37.044Z,100803.89
2019-02-17T21:14:06.883Z,100808.25
2019-02-17T21:16:36.752Z,100814.48
2019-02-17T21:19:06.284Z,100825.91
2019-02-17T21:21:35.484Z,100815.03
2019-02-17T21:24:04.669Z,100821.81
2019-02-17T21:26:34.060Z,100822.08
2019-02-17T21:29:03.170Z,100832.16
2019-02-17T21:31:33.165Z,100829.16
2019-02-17T21:34:02.127Z,100827.53
2019-02-17T21:36:31.603Z,100825.06
2019-02-17T21:39:01.098Z,100832.16
2019-02-17T21:41:30.164Z,100825.34
2019-02-17T21:43:59.182Z,100827.56
2019-02-17T21:46:28.250Z,100828.36
2019-02-17T21:48:57.199Z,100825.92
2019-02-17T21:51:26.482Z,100826.75
2019-02-17T21:53:55.563Z,100823.22
2019-02-17T21:56:24.459Z,100820.22
2019-02-17T21:58:53.311Z,100813.16
2019-02-17T22:01:22.325Z,100822.41
2019-02-17T22:03:51.374Z,100821.06
2019-02-17T22:06:20.209Z,100815.64
2019-02-17T22:08:49.946Z,100809.88
2019-02-17T22:11:18.953Z,100812.36
2019-02-17T22:13:48.258Z,100808.54
2019-02-17T22:16:17.134Z,100812.89
2019-02-17T22:18:47.672Z,100813.73
2019-02-17T22:21:16.528Z,100807.20
2019-02-17T22:23:48.650Z,100799.86
2019-02-17T22:26:17.670Z,100801.48
2019-02-17T22:28:46.821Z,100808.58
2019-02-17T22:31:15.788Z,100802.05
2019-02-17T22:33:44.660Z,100797.42
2019-02-17T22:36:13.619Z,100799.61
2019-02-17T22:38:42.405Z,100799.06
2019-02-17T22:41:11.382Z,100802.84
2019-02-17T22:43:40.283Z,100799.59
2019-02-17T22:46:09.172Z,100805.30
2019-02-17T22:48:38.127Z,100810.73
2019-02-17T22:51:06.987Z,100806.88
2019-02-17T22:53:43.337Z,100812.87
2019-02-17T22:56:06.601Z,100809.89
2019-02-17T22:58:35.528Z,100800.08
2019-02-17T23:01:09.085Z,100802.79
2019-02-17T23:03:37.876Z,100805.52
2019-02-17T23:06:06.837Z,100807.39
2019-02-17T23:08:35.799Z,100806.59
2019-02-17T23:11:04.671Z,100801.97
2019-02-17T23:13:33.558Z,100808.20
2019-02-17T23:16:02.478Z,100814.45
2019-02-17T23:18:31.350Z,100807.37
2019-02-17T23:21:00.148Z,100811.96
2019-02-17T23:23:28.983Z,100813.87
2019-02-17T23:25:57.946Z,100812.52
2019-02-17T23:28:26.846Z,100814.39
2019-02-17T23:30:55.692Z,100816.30
2019-02-17T23:33:24.600Z,100813.82
2019-02-17T23:35:53.524Z,100816.00
2019-02-17T23:38:22.262Z,100820.59
2019-02-17T23:40:51.049Z,100823.30
2019-02-17T23:43:19.913Z,100818.12
2019-02-17T23:45:48.664Z,100826.53
2019-02-17T23:48:17.500Z,100821.89
2019-02-17T23:50:46.299Z,100823.79
2019-02-17T23:53:15.107Z,100824.58
2019-02-17T23:55:44.093Z,100823.76
2019-02-17T23:58:12.953Z,100823.19
